createdAt,value
2022-11-12T00:00:54.369Z,99153.50
2022-11-12T00:04:01.594Z,99148.19
2022-11-12T00:07:08.572Z,99145.09
2022-11-12T00:10:15.571Z,99153.88
2022-11-12T00:13:29.484Z,99159.16
2022-11-12T00:16:37.643Z,99153.41
2022-11-12T00:19:37.832Z,99149.78
2022-11-12T00:22:44.570Z,99149.16
2022-11-12T00:25:52.596Z,99147.84
2022-11-12T00:28:59.496Z,99153.41
2022-11-12T00:32:00.021Z,99156.41
2022-11-12T00:35:07.754Z,99159.75
2022-11-12T00:38:09.854Z,99154.78
2022-11-12T00:41:17.557Z,99160.97
2022-11-12T00:44:17.847Z,99164.81
2022-11-12T00:47:25.575Z,99162.97
2022-11-12T00:50:25.873Z,99161.53
2022-11-12T00:53:32.512Z,99160.72
2022-11-12T00:56:36.211Z,99177.28
2022-11-12T00:59:43.531Z,99166.25
2022-11-12T01:02:50.424Z,99165.13
2022-11-12T01:05:57.480Z,99179.72
2022-11-12T01:08:58.912Z,99182.31
2022-11-12T01:12:06.472Z,99174.09
2022-11-12T01:15:06.895Z,99175.69
2022-11-12T01:18:13.628Z,99184.84
2022-11-12T01:21:15.949Z,99184.53
2022-11-12T01:24:23.468Z,99173.34
2022-11-12T01:27:31.937Z,99189.59
2022-11-12T01:30:31.741Z,99193.00
2022-11-12T01:33:39.483Z,99195.16
2022-11-12T01:36:41.825Z,99188.91
2022-11-12T01:39:48.491Z,99194.91
2022-11-12T01:42:58.393Z,99200.91
2022-11-12T01:46:07.559Z,99206.13
2022-11-12T01:49:20.549Z,99208.00
2022-11-12T01:52:51.573Z,99223.31
2022-11-12T01:56:00.546Z,99226.09
2022-11-12T01:59:08.863Z,99224.78
2022-11-12T02:02:16.552Z,99225.91
2022-11-12T02:05:19.320Z,99230.25
2022-11-12T02:08:27.722Z,99238.00
2022-11-12T02:11:41.405Z,99243.00
2022-11-12T02:14:49.552Z,99250.91
2022-11-12T02:17:49.980Z,99239.81
2022-11-12T02:21:06.571Z,99244.00
2022-11-12T02:24:08.823Z,99248.47
2022-11-12T02:27:17.565Z,99248.78
2022-11-12T02:30:18.845Z,99246.72
2022-11-12T02:33:26.781Z,99265.94
2022-11-12T02:36:27.827Z,99258.91
2022-11-12T02:39:35.488Z,99263.47
2022-11-12T02:42:42.455Z,99261.38
2022-11-12T02:45:42.876Z,99270.50
2022-11-12T02:48:50.537Z,99270.63
2022-11-12T02:51:57.570Z,99276.75
2022-11-12T02:55:04.526Z,99279.66
2022-11-12T02:58:11.543Z,99273.47
2022-11-12T03:01:11.882Z,99267.88
2022-11-12T03:04:19.833Z,99275.84
2022-11-12T03:07:19.869Z,99281.28
2022-11-12T03:10:27.547Z,99281.97
2022-11-12T03:13:40.543Z,99282.13
2022-11-12T03:16:47.552Z,99290.66
2022-11-12T03:19:48.838Z,99294.22
2022-11-12T03:23:14.475Z,99301.38
2022-11-12T03:26:14.807Z,99295.13
2022-11-12T03:29:21.523Z,99299.75
2022-11-12T03:32:21.822Z,99295.34
2022-11-12T03:35:22.533Z,99299.44
2022-11-12T03:38:22.818Z,99306.19
2022-11-12T03:41:29.521Z,99304.97
2022-11-12T03:44:36.550Z,99306.22
2022-11-12T03:47:36.925Z,99310.78
2022-11-12T03:50:43.520Z,99314.53
2022-11-12T03:53:50.515Z,99314.06
2022-11-12T03:56:51.779Z,99323.84
2022-11-12T03:59:58.559Z,99310.00
2022-11-12T04:03:00.726Z,99322.19
2022-11-12T04:06:25.531Z,99324.94
2022-11-12T04:09:25.718Z,99328.19
2022-11-12T04:12:51.545Z,99330.66
2022-11-12T04:16:18.553Z,99341.03
2022-11-12T04:19:39.130Z,99339.44
2022-11-12T04:22:45.560Z,99343.97
2022-11-12T04:26:06.174Z,99341.03
2022-11-12T04:29:37.260Z,99339.03
2022-11-12T04:32:39.827Z,99339.22
2022-11-12T04:35:47.467Z,99343.09
2022-11-12T04:38:48.822Z,99338.28
2022-11-12T04:42:13.460Z,99340.03
2022-11-12T04:45:18.790Z,99342.16
2022-11-12T04:48:27.840Z,99346.25
2022-11-12T04:51:46.146Z,99343.00
2022-11-12T04:54:52.467Z,99342.28
2022-11-12T04:58:01.045Z,99338.97
2022-11-12T05:01:03.147Z,99330.53
2022-11-12T05:04:10.537Z,99333.19
2022-11-12T05:07:11.505Z,99336.94
2022-11-12T05:10:19.542Z,99337.56
2022-11-12T05:13:29.290Z,99331.31
2022-11-12T05:16:30.525Z,99333.69
2022-11-12T05:19:37.617Z,99327.97
2022-11-12T05:22:47.874Z,99331.19
2022-11-12T05:26:01.541Z,99327.16
2022-11-12T05:29:07.587Z,99321.66
2022-11-12T05:32:16.525Z,99320.97
2022-11-12T05:35:23.522Z,99325.56
2022-11-12T05:38:25.145Z,99316.00
2022-11-12T05:41:57.970Z,99320.22
2022-11-12T05:45:01.449Z,99318.00
2022-11-12T05:48:03.264Z,99313.09
2022-11-12T05:51:13.642Z,99302.91
2022-11-12T05:54:21.529Z,99301.53
2022-11-12T05:57:28.441Z,99302.06
2022-11-12T06:00:35.522Z,99293.56
2022-11-12T06:03:36.168Z,99287.06
2022-11-12T06:06:44.622Z,99289.97
2022-11-12T06:09:45.663Z,99286.59
2022-11-12T06:12:52.531Z,99285.25
2022-11-12T06:16:02.531Z,99296.56
2022-11-12T06:19:02.858Z,99285.78
2022-11-12T06:22:09.526Z,99285.03
2022-11-12T06:25:16.507Z,99281.94
2022-11-12T06:28:23.594Z,99286.53
2022-11-12T06:31:31.525Z,99288.22
2022-11-12T06:34:38.529Z,99277.78
2022-11-12T06:37:46.511Z,99276.59
2022-11-12T06:40:53.531Z,99263.16
2022-11-12T06:44:01.528Z,99258.13
2022-11-12T06:47:08.535Z,99269.53
2022-11-12T06:50:08.803Z,99265.78
2022-11-12T06:53:15.530Z,99258.81
2022-11-12T06:56:22.581Z,99254.63
2022-11-12T06:59:23.713Z,99264.16
2022-11-12T07:02:31.531Z,99257.19
2022-11-12T07:05:38.547Z,99248.69
2022-11-12T07:08:46.588Z,99246.66
2022-11-12T07:11:59.396Z,99241.88
2022-11-12T07:15:06.507Z,99235.75
2022-11-12T07:18:13.574Z,99245.53
2022-11-12T07:21:17.690Z,99242.22
2022-11-12T07:24:24.530Z,99248.75
2022-11-12T07:27:24.895Z,99239.66
2022-11-12T07:30:32.543Z,99226.69
2022-11-12T07:33:34.063Z,99223.25
2022-11-12T07:36:41.509Z,99223.41
2022-11-12T07:39:49.444Z,99220.16
2022-11-12T07:42:56.520Z,99213.78
2022-11-12T07:46:01.934Z,99213.47
2022-11-12T07:49:10.586Z,99208.91
2022-11-12T07:52:10.791Z,99200.34
2022-11-12T07:55:18.493Z,99197.59
2022-11-12T07:58:25.921Z,99193.97
2022-11-12T08:01:55.526Z,99185.06
2022-11-12T08:04:56.804Z,99180.25
2022-11-12T08:08:04.552Z,99178.94
2022-11-12T08:11:18.376Z,99181.97
2022-11-12T08:14:25.447Z,99169.94
2022-11-12T08:17:26.805Z,99168.47
2022-11-12T08:20:34.519Z,99150.13
2022-11-12T08:23:36.348Z,99152.56
2022-11-12T08:26:44.505Z,99151.47
2022-11-12T08:29:44.810Z,99136.38
2022-11-12T08:32:51.425Z,99124.13
2022-11-12T08:35:58.536Z,99120.97
2022-11-12T08:38:59.690Z,99105.59
2022-11-12T08:42:06.532Z,99107.22
2022-11-12T08:45:13.527Z,99098.72
2022-11-12T08:48:19.988Z,99086.59
2022-11-12T08:51:27.429Z,99078.78
2022-11-12T08:54:27.859Z,99078.44
2022-11-12T08:57:34.599Z,99076.66
2022-11-12T09:00:45.800Z,99067.41
2022-11-12T09:03:52.522Z,99080.63
2022-11-12T09:06:54.122Z,99063.31
2022-11-12T09:10:01.513Z,99059.44
2022-11-12T09:13:15.390Z,99055.34
2022-11-12T09:16:22.442Z,99048.22
2022-11-12T09:19:24.910Z,99054.88
2022-11-12T09:22:31.593Z,99056.81
2022-11-12T09:25:32.971Z,99041.41
2022-11-12T09:28:41.523Z,99039.63
2022-11-12T09:31:41.863Z,99036.03
2022-11-12T09:34:48.539Z,99042.03
2022-11-12T09:37:55.507Z,99036.50
2022-11-12T09:41:12.329Z,99032.22
2022-11-12T09:44:36.677Z,99033.94
2022-11-12T09:47:44.671Z,99022.56
2022-11-12T09:51:06.515Z,99033.59
2022-11-12T09:54:27.076Z,99025.34
2022-11-12T09:57:34.573Z,99019.66
2022-11-12T10:00:35.428Z,99018.81
2022-11-12T10:03:54.420Z,99018.16
2022-11-12T10:07:01.716Z,99008.59
2022-11-12T10:10:28.439Z,99010.69
2022-11-12T10:14:08.534Z,99008.59
2022-11-12T10:17:57.496Z,99013.22
2022-11-12T10:21:23.519Z,99018.28
2022-11-12T10:24:31.431Z,99014.84
2022-11-12T10:27:47.520Z,99019.22
2022-11-12T10:30:48.519Z,99014.81
2022-11-12T10:33:56.597Z,99004.41
2022-11-12T10:37:06.373Z,99001.34
2022-11-12T10:40:13.588Z,99001.34
2022-11-12T10:43:38.353Z,98998.91
2022-11-12T10:46:46.417Z,99003.25
2022-11-12T10:49:46.779Z,99005.34
2022-11-12T10:53:14.528Z,99006.78
2022-11-12T10:56:45.416Z,99000.94
2022-11-12T10:59:53.529Z,99002.34
2022-11-12T11:03:02.421Z,99004.88
2022-11-12T11:06:09.003Z,99007.91
2022-11-12T11:09:29.596Z,99007.00
2022-11-12T11:12:29.660Z,99008.28
2022-11-12T11:15:38.511Z,99006.44
2022-11-12T11:18:49.439Z,99002.34
2022-11-12T11:22:03.418Z,98994.16
2022-11-12T11:25:31.539Z,99002.88
2022-11-12T11:29:40.513Z,99003.94
2022-11-12T11:32:49.411Z,99002.13
2022-11-12T11:35:56.423Z,98998.59
2022-11-12T11:39:26.806Z,98999.72
2022-11-12T11:43:20.409Z,99001.16
2022-11-12T11:46:28.531Z,99007.75
2022-11-12T11:50:01.769Z,99015.00
2022-11-12T11:53:33.514Z,99017.59
2022-11-12T11:56:43.811Z,99020.81
2022-11-12T12:00:30.491Z,99027.91
2022-11-12T12:03:51.816Z,99025.81
2022-11-12T12:07:07.591Z,99025.97
2022-11-12T12:10:46.289Z,99025.06
2022-11-12T12:14:08.501Z,99029.53
2022-11-12T12:17:24.739Z,99026.94
2022-11-12T12:20:48.508Z,99040.00
2022-11-12T12:23:54.779Z,99036.56
2022-11-12T12:27:27.510Z,99039.09
2022-11-12T12:30:32.111Z,99050.22
2022-11-12T12:34:10.489Z,99050.13
2022-11-12T12:37:32.801Z,99058.94
2022-11-12T12:40:49.526Z,99061.75
2022-11-12T12:43:59.198Z,99065.13
2022-11-12T12:47:08.540Z,99067.69
2022-11-12T12:50:11.958Z,99074.63
2022-11-12T12:53:35.408Z,99089.94
2022-11-12T12:56:46.837Z,99082.25
2022-11-12T12:59:47.734Z,99085.22
2022-11-12T13:02:55.494Z,99085.25
2022-11-12T13:06:25.998Z,99089.28
2022-11-12T13:09:32.572Z,99103.91
2022-11-12T13:13:19.353Z,99110.78
2022-11-12T13:16:58.417Z,99111.13
2022-11-12T13:20:02.602Z,99110.03
2022-11-12T13:23:09.516Z,99108.97
2022-11-12T13:26:48.825Z,99109.00
2022-11-12T13:29:56.490Z,99118.47
2022-11-12T13:32:56.798Z,99125.78
2022-11-12T13:36:40.547Z,99122.75
2022-11-12T13:39:43.924Z,99130.00
2022-11-12T13:42:57.518Z,99131.03
2022-11-12T13:46:24.500Z,99139.19
2022-11-12T13:49:24.994Z,99148.84
2022-11-12T13:52:34.498Z,99154.66
2022-11-12T13:55:35.673Z,99160.97
2022-11-12T13:58:51.392Z,99174.69
2022-11-12T14:01:53.155Z,99168.69
2022-11-12T14:05:01.499Z,99189.78
2022-11-12T14:08:17.498Z,99188.66
2022-11-12T14:11:51.487Z,99190.31
2022-11-12T14:15:03.790Z,99191.38
2022-11-12T14:18:18.481Z,99187.56
2022-11-12T14:21:19.586Z,99193.59
2022-11-12T14:24:27.471Z,99184.63
2022-11-12T14:27:38.462Z,99179.16
2022-11-12T14:30:45.472Z,99176.97
2022-11-12T14:33:53.421Z,99170.97
2022-11-12T14:37:03.414Z,99180.00
2022-11-12T14:40:11.567Z,99169.09
2022-11-12T14:43:18.019Z,99172.34
2022-11-12T14:46:54.425Z,99177.31
2022-11-12T14:49:57.818Z,99189.88
2022-11-12T14:53:14.401Z,99191.75
2022-11-12T14:56:20.770Z,99190.94
2022-11-12T14:59:28.472Z,99192.06
2022-11-12T15:02:55.669Z,99195.91
2022-11-12T15:06:05.387Z,99198.91
2022-11-12T15:09:09.464Z,99193.22
2022-11-12T15:12:19.407Z,99197.00
2022-11-12T15:15:28.746Z,99198.69
2022-11-12T15:18:38.404Z,99196.50
2022-11-12T15:21:46.497Z,99189.94
2022-11-12T15:24:49.621Z,99189.13
2022-11-12T15:27:58.554Z,99187.22
2022-11-12T15:31:07.970Z,99184.47
2022-11-12T15:34:35.498Z,99181.75
2022-11-12T15:37:43.919Z,99179.59
2022-11-12T15:40:57.844Z,99173.59
2022-11-12T15:43:58.462Z,99180.69
2022-11-12T15:47:07.450Z,99177.69
2022-11-12T15:50:17.829Z,99175.50
2022-11-12T15:53:24.579Z,99177.09
2022-11-12T15:56:25.896Z,99187.75
2022-11-12T15:59:33.420Z,99186.69
2022-11-12T16:02:34.578Z,99183.38
2022-11-12T16:05:41.410Z,99184.50
2022-11-12T16:08:49.476Z,99182.31
2022-11-12T16:11:57.422Z,99183.69
2022-11-12T16:15:10.376Z,99190.50
2022-11-12T16:18:13.936Z,99191.31
2022-11-12T16:21:21.083Z,99188.59
2022-11-12T16:24:22.711Z,99182.84
2022-11-12T16:27:30.484Z,99181.75
2022-11-12T16:30:33.656Z,99177.94
2022-11-12T16:33:40.478Z,99177.13
2022-11-12T16:36:41.924Z,99183.94
2022-11-12T16:39:49.557Z,99177.13
2022-11-12T16:42:51.058Z,99178.47
2022-11-12T16:45:59.414Z,99176.84
2022-11-12T16:48:59.707Z,99181.75
2022-11-12T16:52:06.475Z,99180.09
2022-11-12T16:55:08.374Z,99181.47
2022-11-12T16:58:15.486Z,99182.81
2022-11-12T17:01:30.476Z,99182.53
2022-11-12T17:04:40.495Z,99184.16
2022-11-12T17:07:47.470Z,99179.53
2022-11-12T17:10:54.488Z,99180.34
2022-11-12T17:14:01.486Z,99176.78
2022-11-12T17:17:01.768Z,99163.94
2022-11-12T17:20:09.376Z,99169.13
2022-11-12T17:23:16.376Z,99163.13
2022-11-12T17:26:26.501Z,99165.84
2022-11-12T17:29:33.472Z,99167.47
2022-11-12T17:32:34.262Z,99166.06
2022-11-12T17:35:42.488Z,99169.59
2022-11-12T17:38:44.339Z,99170.44
2022-11-12T17:41:51.461Z,99168.78
2022-11-12T17:44:52.695Z,99168.22
2022-11-12T17:47:59.451Z,99173.66
2022-11-12T17:51:27.482Z,99170.66
2022-11-12T17:54:28.762Z,99167.38
2022-11-12T17:57:35.455Z,99165.22
2022-11-12T18:00:36.728Z,99170.06
2022-11-12T18:03:47.482Z,99160.50
2022-11-12T18:06:47.819Z,99166.75
2022-11-12T18:09:54.409Z,99164.09
2022-11-12T18:13:01.550Z,99161.03
2022-11-12T18:16:13.508Z,99168.91
2022-11-12T18:19:23.467Z,99169.44
2022-11-12T18:22:23.711Z,99167.84
2022-11-12T18:25:31.750Z,99161.28
2022-11-12T18:28:38.472Z,99167.78
2022-11-12T18:31:41.490Z,99153.09
2022-11-12T18:34:52.522Z,99160.97
2022-11-12T18:37:53.888Z,99149.19
2022-11-12T18:41:09.475Z,99154.09
2022-11-12T18:44:19.879Z,99157.91
2022-11-12T18:47:21.934Z,99151.34
2022-11-12T18:50:29.465Z,99151.06
2022-11-12T18:53:31.078Z,99146.47
2022-11-12T18:56:37.464Z,99142.66
2022-11-12T18:59:44.706Z,99136.94
2022-11-12T19:02:52.505Z,99139.41
2022-11-12T19:06:06.452Z,99135.56
2022-11-12T19:09:12.829Z,99128.47
2022-11-12T19:12:20.455Z,99124.88
2022-11-12T19:15:27.909Z,99122.72
2022-11-12T19:18:28.678Z,99123.78
2022-11-12T19:21:29.942Z,99118.59
2022-11-12T19:24:36.460Z,99118.59
2022-11-12T19:27:37.858Z,99121.59
2022-11-12T19:30:44.360Z,99115.53
2022-11-12T19:33:53.380Z,99106.56
2022-11-12T19:37:31.584Z,99108.69
2022-11-12T19:40:21.024Z,99108.16
2022-11-12T19:43:29.373Z,99105.63
2022-11-12T19:46:32.791Z,99089.00
2022-11-12T19:49:40.369Z,99085.47
2022-11-12T19:52:41.642Z,99089.25
2022-11-12T19:55:49.361Z,99075.91
2022-11-12T19:58:51.156Z,99072.63
2022-11-12T20:01:59.360Z,99072.03
2022-11-12T20:05:06.489Z,99065.47
2022-11-12T20:08:06.891Z,99063.56
2022-11-12T20:11:13.421Z,99058.47
2022-11-12T20:14:21.364Z,99059.97
2022-11-12T20:17:28.447Z,99062.91
2022-11-12T20:20:35.352Z,99062.59
2022-11-12T20:23:43.451Z,99063.69
2022-11-12T20:26:44.734Z,99068.03
2022-11-12T20:29:51.374Z,99061.75
2022-11-12T20:32:58.752Z,99060.72
2022-11-12T20:36:08.136Z,99050.34
2022-11-12T20:39:15.448Z,99053.38
2022-11-12T20:42:22.446Z,99044.16
2022-11-12T20:45:22.732Z,99043.53
2022-11-12T20:48:30.546Z,99045.72
2022-11-12T20:51:34.009Z,99038.06
2022-11-12T20:54:40.432Z,99031.56
2022-11-12T20:57:41.777Z,99035.69
2022-11-12T21:00:49.447Z,99040.28
2022-11-12T21:03:58.442Z,99036.41
2022-11-12T21:07:04.863Z,99027.78
2022-11-12T21:10:12.346Z,99018.66
2022-11-12T21:13:12.612Z,99018.22
2022-11-12T21:16:21.432Z,99019.22
2022-11-12T21:19:21.704Z,99012.94
2022-11-12T21:22:29.411Z,99009.97
2022-11-12T21:25:29.630Z,99012.31
2022-11-12T21:28:37.476Z,98996.03
2022-11-12T21:31:37.667Z,99000.66
2022-11-12T21:34:44.445Z,99004.16
2022-11-12T21:37:44.638Z,98997.34
2022-11-12T21:40:51.342Z,99002.69
2022-11-12T21:43:52.264Z,98997.50
2022-11-12T21:46:59.340Z,99001.28
2022-11-12T21:49:59.632Z,98997.50
2022-11-12T21:53:06.434Z,99000.25
2022-11-12T21:56:13.961Z,99002.41
2022-11-12T21:59:21.343Z,98992.53
2022-11-12T22:02:21.629Z,98997.22
2022-11-12T22:05:29.352Z,99002.34
2022-11-12T22:08:30.822Z,98996.97
2022-11-12T22:11:38.357Z,98997.75
2022-11-12T22:14:52.430Z,99001.34
2022-11-12T22:17:53.589Z,98997.75
2022-11-12T22:21:11.430Z,99002.94
2022-11-12T22:24:12.903Z,98995.28
2022-11-12T22:27:19.446Z,98996.84
2022-11-12T22:30:19.626Z,98997.63
2022-11-12T22:33:26.323Z,98997.66
2022-11-12T22:36:29.646Z,99006.34
2022-11-12T22:39:37.340Z,98995.16
2022-11-12T22:42:45.424Z,98997.06
2022-11-12T22:45:52.329Z,99009.78
2022-11-12T22:49:01.358Z,99012.38
2022-11-12T22:52:01.774Z,99012.19
2022-11-12T22:55:08.353Z,99010.84
2022-11-12T22:58:08.750Z,99008.28
2022-11-12T23:01:18.445Z,99010.28
2022-11-12T23:04:18.723Z,99020.28
2022-11-12T23:07:26.415Z,99019.00
2022-11-12T23:10:26.681Z,99019.56
2022-11-12T23:13:35.333Z,99022.38
2022-11-12T23:16:45.446Z,99020.91
2022-11-12T23:19:52.415Z,99018.50
2022-11-12T23:22:53.067Z,99019.06
2022-11-12T23:26:00.340Z,99016.91
2022-11-12T23:29:08.411Z,99019.94
2022-11-12T23:32:08.601Z,99015.84
2022-11-12T23:35:15.417Z,99020.91
2022-11-12T23:38:15.621Z,99022.31
2022-11-12T23:41:24.448Z,99024.69
2022-11-12T23:44:25.627Z,99022.53
2022-11-12T23:47:32.433Z,99026.59
2022-11-12T23:50:32.608Z,99034.22
2022-11-12T23:53:39.343Z,99034.16
2022-11-12T23:56:46.338Z,99033.69
2022-11-12T23:59:46.714Z,99028.97
